sensor_id;sensor_type;location;lat;lon;timestamp;P1;durP1;ratioP1;P2;durP2;ratioP2
23370;SDS011;11858;51.056;3.712;2022-12-07T00:01:20;31.40;;;27.40;;
23370;SDS011;11858;51.056;3.712;2022-12-07T00:03:51;29.48;;;26.30;;
23370;SDS011;11858;51.056;3.712;2022-12-07T00:06:19;29.45;;;26.45;;
23370;SDS011;11858;51.056;3.712;2022-12-07T00:08:45;28.40;;;25.52;;
23370;SDS011;11858;51.056;3.712;2022-12-07T00:11:13;28.58;;;25.52;;
23370;SDS011;11858;51.056;3.712;2022-12-07T00:13:40;27.50;;;24.70;;
23370;SDS011;11858;51.056;3.712;2022-12-07T00:16:16;27.88;;;24.83;;
23370;SDS011;11858;51.056;3.712;2022-12-07T00:18:43;29.10;;;25.58;;
23370;SDS011;11858;51.056;3.712;2022-12-07T00:21:11;28.60;;;25.67;;
23370;SDS011;11858;51.056;3.712;2022-12-07T00:23:39;27.65;;;24.67;;
23370;SDS011;11858;51.056;3.712;2022-12-07T00:26:10;27.45;;;25.00;;
23370;SDS011;11858;51.056;3.712;2022-12-07T00:28:37;27.00;;;24.25;;
23370;SDS011;11858;51.056;3.712;2022-12-07T00:31:04;27.40;;;24.63;;
23370;SDS011;11858;51.056;3.712;2022-12-07T00:33:32;25.83;;;23.42;;
23370;SDS011;11858;51.056;3.712;2022-12-07T00:35:59;26.70;;;24.13;;
23370;SDS011;11858;51.056;3.712;2022-12-07T00:38:27;25.02;;;22.40;;
23370;SDS011;11858;51.056;3.712;2022-12-07T00:40:58;25.95;;;23.58;;
23370;SDS011;11858;51.056;3.712;2022-12-07T00:43:25;25.52;;;23.15;;
23370;SDS011;11858;51.056;3.712;2022-12-07T00:45:51;28.10;;;23.80;;
23370;SDS011;11858;51.056;3.712;2022-12-07T00:48:18;26.02;;;23.60;;
23370;SDS011;11858;51.056;3.712;2022-12-07T00:50:44;26.13;;;23.42;;
23370;SDS011;11858;51.056;3.712;2022-12-07T00:53:10;27.20;;;24.25;;
23370;SDS011;11858;51.056;3.712;2022-12-07T00:55:36;26.48;;;23.83;;
23370;SDS011;11858;51.056;3.712;2022-12-07T00:58:02;28.58;;;22.98;;
23370;SDS011;11858;51.056;3.712;2022-12-07T01:00:28;26.10;;;23.52;;
23370;SDS011;11858;51.056;3.712;2022-12-07T01:02:54;26.52;;;23.73;;
23370;SDS011;11858;51.056;3.712;2022-12-07T01:05:19;27.60;;;24.83;;
23370;SDS011;11858;51.056;3.712;2022-12-07T01:07:45;28.95;;;25.55;;
23370;SDS011;11858;51.056;3.712;2022-12-07T01:10:12;27.58;;;24.77;;
23370;SDS011;11858;51.056;3.712;2022-12-07T01:12:38;28.13;;;25.27;;
23370;SDS011;11858;51.056;3.712;2022-12-07T01:15:05;28.65;;;25.73;;
23370;SDS011;11858;51.056;3.712;2022-12-07T01:17:31;28.65;;;25.67;;
23370;SDS011;11858;51.056;3.712;2022-12-07T01:19:57;29.50;;;26.48;;
23370;SDS011;11858;51.056;3.712;2022-12-07T01:22:23;29.08;;;25.40;;
23370;SDS011;11858;51.056;3.712;2022-12-07T01:24:48;29.92;;;26.77;;
23370;SDS011;11858;51.056;3.712;2022-12-07T01:27:14;31.67;;;27.13;;
23370;SDS011;11858;51.056;3.712;2022-12-07T01:29:40;31.35;;;26.83;;
23370;SDS011;11858;51.056;3.712;2022-12-07T01:32:06;29.80;;;26.60;;
23370;SDS011;11858;51.056;3.712;2022-12-07T01:34:32;30.70;;;27.38;;
23370;SDS011;11858;51.056;3.712;2022-12-07T01:36:57;31.40;;;28.15;;
23370;SDS011;11858;51.056;3.712;2022-12-07T01:39:23;32.30;;;28.92;;
23370;SDS011;11858;51.056;3.712;2022-12-07T01:41:49;33.97;;;28.77;;
23370;SDS011;11858;51.056;3.712;2022-12-07T01:46:47;34.05;;;29.45;;
23370;SDS011;11858;51.056;3.712;2022-12-07T01:52:30;31.38;;;28.10;;
23370;SDS011;11858;51.056;3.712;2022-12-07T01:54:59;32.88;;;28.77;;
23370;SDS011;11858;51.056;3.712;2022-12-07T01:57:31;33.58;;;28.50;;
23370;SDS011;11858;51.056;3.712;2022-12-07T01:59:59;32.55;;;28.40;;
23370;SDS011;11858;51.056;3.712;2022-12-07T02:02:26;33.00;;;29.67;;
23370;SDS011;11858;51.056;3.712;2022-12-07T02:04:58;32.13;;;28.65;;
23370;SDS011;11858;51.056;3.712;2022-12-07T02:07:25;38.30;;;29.73;;
23370;SDS011;11858;51.056;3.712;2022-12-07T02:09:52;34.67;;;29.55;;
23370;SDS011;11858;51.056;3.712;2022-12-07T02:12:19;39.10;;;29.77;;
23370;SDS011;11858;51.056;3.712;2022-12-07T02:14:45;33.53;;;29.77;;
23370;SDS011;11858;51.056;3.712;2022-12-07T02:22:29;33.88;;;30.38;;
23370;SDS011;11858;51.056;3.712;2022-12-07T02:28:00;34.28;;;28.88;;
23370;SDS011;11858;51.056;3.712;2022-12-07T02:30:48;33.30;;;29.73;;
23370;SDS011;11858;51.056;3.712;2022-12-07T02:33:32;33.95;;;30.13;;
23370;SDS011;11858;51.056;3.712;2022-12-07T02:36:04;33.97;;;30.33;;
23370;SDS011;11858;51.056;3.712;2022-12-07T02:44:27;35.17;;;30.58;;
23370;SDS011;11858;51.056;3.712;2022-12-07T02:47:05;34.72;;;31.02;;
23370;SDS011;11858;51.056;3.712;2022-12-07T02:49:35;32.08;;;28.42;;
23370;SDS011;11858;51.056;3.712;2022-12-07T02:52:03;33.92;;;30.05;;
23370;SDS011;11858;51.056;3.712;2022-12-07T02:54:28;32.95;;;29.38;;
23370;SDS011;11858;51.056;3.712;2022-12-07T02:57:16;33.53;;;29.55;;
23370;SDS011;11858;51.056;3.712;2022-12-07T03:00:03;32.13;;;28.43;;
23370;SDS011;11858;51.056;3.712;2022-12-07T03:05:53;30.08;;;27.05;;
23370;SDS011;11858;51.056;3.712;2022-12-07T03:11:08;32.70;;;26.55;;
23370;SDS011;11858;51.056;3.712;2022-12-07T03:16:23;28.42;;;25.40;;
23370;SDS011;11858;51.056;3.712;2022-12-07T03:19:02;30.90;;;26.45;;
23370;SDS011;11858;51.056;3.712;2022-12-07T03:21:39;29.63;;;25.90;;
23370;SDS011;11858;51.056;3.712;2022-12-07T03:24:14;28.02;;;25.02;;
23370;SDS011;11858;51.056;3.712;2022-12-07T03:26:45;29.17;;;25.95;;
23370;SDS011;11858;51.056;3.712;2022-12-07T03:29:59;26.92;;;24.23;;
23370;SDS011;11858;51.056;3.712;2022-12-07T03:34:46;26.27;;;23.83;;
23370;SDS011;11858;51.056;3.712;2022-12-07T03:37:26;27.70;;;25.20;;
23370;SDS011;11858;51.056;3.712;2022-12-07T03:42:53;27.05;;;24.23;;
23370;SDS011;11858;51.056;3.712;2022-12-07T03:45:21;27.45;;;24.85;;
23370;SDS011;11858;51.056;3.712;2022-12-07T03:50:32;27.98;;;24.92;;
23370;SDS011;11858;51.056;3.712;2022-12-07T03:53:24;29.92;;;25.05;;
23370;SDS011;11858;51.056;3.712;2022-12-07T03:55:58;27.80;;;24.98;;
23370;SDS011;11858;51.056;3.712;2022-12-07T03:58:25;27.33;;;24.50;;
23370;SDS011;11858;51.056;3.712;2022-12-07T04:00:52;28.58;;;24.58;;
23370;SDS011;11858;51.056;3.712;2022-12-07T04:03:18;47.10;;;43.33;;
23370;SDS011;11858;51.056;3.712;2022-12-07T04:05:43;45.67;;;41.85;;
23370;SDS011;11858;51.056;3.712;2022-12-07T04:08:09;46.25;;;42.72;;
23370;SDS011;11858;51.056;3.712;2022-12-07T04:10:35;44.63;;;40.75;;
23370;SDS011;11858;51.056;3.712;2022-12-07T04:13:01;45.60;;;41.85;;
23370;SDS011;11858;51.056;3.712;2022-12-07T04:15:27;45.45;;;41.63;;
23370;SDS011;11858;51.056;3.712;2022-12-07T04:17:52;45.33;;;41.45;;
23370;SDS011;11858;51.056;3.712;2022-12-07T04:20:19;43.75;;;40.20;;
23370;SDS011;11858;51.056;3.712;2022-12-07T04:22:45;44.22;;;40.42;;
23370;SDS011;11858;51.056;3.712;2022-12-07T04:25:10;43.15;;;39.50;;
23370;SDS011;11858;51.056;3.712;2022-12-07T04:27:36;43.45;;;39.55;;
23370;SDS011;11858;51.056;3.712;2022-12-07T04:30:02;44.20;;;40.40;;
23370;SDS011;11858;51.056;3.712;2022-12-07T04:32:29;44.50;;;40.70;;
23370;SDS011;11858;51.056;3.712;2022-12-07T04:34:54;43.10;;;39.63;;
23370;SDS011;11858;51.056;3.712;2022-12-07T04:37:20;43.20;;;39.05;;
23370;SDS011;11858;51.056;3.712;2022-12-07T04:39:46;44.25;;;40.55;;
23370;SDS011;11858;51.056;3.712;2022-12-07T04:42:11;42.33;;;39.20;;
23370;SDS011;11858;51.056;3.712;2022-12-07T04:44:37;43.25;;;39.50;;
23370;SDS011;11858;51.056;3.712;2022-12-07T04:47:03;43.53;;;39.55;;
23370;SDS011;11858;51.056;3.712;2022-12-07T04:49:29;44.35;;;40.70;;
23370;SDS011;11858;51.056;3.712;2022-12-07T04:51:55;41.95;;;38.50;;
23370;SDS011;11858;51.056;3.712;2022-12-07T04:54:21;43.80;;;40.15;;
23370;SDS011;11858;51.056;3.712;2022-12-07T04:56:47;42.00;;;38.33;;
23370;SDS011;11858;51.056;3.712;2022-12-07T04:59:12;44.70;;;40.28;;
23370;SDS011;11858;51.056;3.712;2022-12-07T05:01:39;44.58;;;40.63;;
23370;SDS011;11858;51.056;3.712;2022-12-07T05:04:05;42.80;;;38.85;;
23370;SDS011;11858;51.056;3.712;2022-12-07T05:06:31;43.72;;;40.00;;
23370;SDS011;11858;51.056;3.712;2022-12-07T05:08:57;42.38;;;38.97;;
23370;SDS011;11858;51.056;3.712;2022-12-07T05:11:23;42.20;;;38.40;;
23370;SDS011;11858;51.056;3.712;2022-12-07T05:14:08;41.22;;;37.75;;
23370;SDS011;11858;51.056;3.712;2022-12-07T05:16:36;42.25;;;38.55;;
23370;SDS011;11858;51.056;3.712;2022-12-07T05:19:03;41.17;;;37.40;;
23370;SDS011;11858;51.056;3.712;2022-12-07T05:21:30;41.30;;;37.80;;
23370;SDS011;11858;51.056;3.712;2022-12-07T05:23:55;40.65;;;37.25;;
23370;SDS011;11858;51.056;3.712;2022-12-07T05:26:21;41.15;;;37.28;;
23370;SDS011;11858;51.056;3.712;2022-12-07T05:28:51;42.72;;;39.35;;
23370;SDS011;11858;51.056;3.712;2022-12-07T05:31:17;44.17;;;40.53;;
23370;SDS011;11858;51.056;3.712;2022-12-07T05:33:43;42.00;;;38.58;;
23370;SDS011;11858;51.056;3.712;2022-12-07T05:36:09;44.00;;;40.60;;
23370;SDS011;11858;51.056;3.712;2022-12-07T05:38:35;45.42;;;41.55;;
23370;SDS011;11858;51.056;3.712;2022-12-07T05:41:04;45.30;;;41.28;;
23370;SDS011;11858;51.056;3.712;2022-12-07T05:43:31;44.70;;;41.10;;
23370;SDS011;11858;51.056;3.712;2022-12-07T05:45:57;43.92;;;40.08;;
23370;SDS011;11858;51.056;3.712;2022-12-07T05:48:23;43.83;;;40.13;;
23370;SDS011;11858;51.056;3.712;2022-12-07T05:50:49;43.13;;;38.90;;
23370;SDS011;11858;51.056;3.712;2022-12-07T05:53:16;43.53;;;39.70;;
23370;SDS011;11858;51.056;3.712;2022-12-07T05:55:42;43.47;;;39.63;;
23370;SDS011;11858;51.056;3.712;2022-12-07T05:58:08;41.00;;;37.55;;
23370;SDS011;11858;51.056;3.712;2022-12-07T06:00:55;42.53;;;39.03;;
23370;SDS011;11858;51.056;3.712;2022-12-07T06:03:21;42.10;;;38.63;;
23370;SDS011;11858;51.056;3.712;2022-12-07T06:05:47;44.50;;;40.90;;
23370;SDS011;11858;51.056;3.712;2022-12-07T06:08:13;44.28;;;38.55;;
23370;SDS011;11858;51.056;3.712;2022-12-07T06:10:40;42.85;;;38.92;;
23370;SDS011;11858;51.056;3.712;2022-12-07T06:13:07;40.35;;;36.72;;
23370;SDS011;11858;51.056;3.712;2022-12-07T06:15:35;41.75;;;37.90;;
23370;SDS011;11858;51.056;3.712;2022-12-07T06:18:01;39.00;;;35.10;;
23370;SDS011;11858;51.056;3.712;2022-12-07T06:20:27;39.83;;;35.78;;
23370;SDS011;11858;51.056;3.712;2022-12-07T06:22:55;40.00;;;35.83;;
23370;SDS011;11858;51.056;3.712;2022-12-07T06:25:21;43.80;;;39.38;;
23370;SDS011;11858;51.056;3.712;2022-12-07T06:27:47;41.25;;;37.13;;
23370;SDS011;11858;51.056;3.712;2022-12-07T06:30:12;42.17;;;38.17;;
23370;SDS011;11858;51.056;3.712;2022-12-07T06:32:39;42.60;;;38.92;;
23370;SDS011;11858;51.056;3.712;2022-12-07T06:35:04;34.47;;;25.25;;
23370;SDS011;11858;51.056;3.712;2022-12-07T06:37:30;33.95;;;25.98;;
23370;SDS011;11858;51.056;3.712;2022-12-07T06:39:56;31.42;;;25.52;;
23370;SDS011;11858;51.056;3.712;2022-12-07T06:42:21;37.70;;;26.52;;
23370;SDS011;11858;51.056;3.712;2022-12-07T06:44:47;28.15;;;25.08;;
23370;SDS011;11858;51.056;3.712;2022-12-07T06:47:13;31.48;;;25.38;;
23370;SDS011;11858;51.056;3.712;2022-12-07T06:49:38;36.65;;;27.15;;
23370;SDS011;11858;51.056;3.712;2022-12-07T06:52:04;37.20;;;28.00;;
23370;SDS011;11858;51.056;3.712;2022-12-07T06:54:30;36.35;;;28.00;;
23370;SDS011;11858;51.056;3.712;2022-12-07T06:56:56;37.22;;;28.88;;
23370;SDS011;11858;51.056;3.712;2022-12-07T06:59:22;31.23;;;27.10;;
23370;SDS011;11858;51.056;3.712;2022-12-07T07:01:47;28.63;;;25.05;;
23370;SDS011;11858;51.056;3.712;2022-12-07T07:04:13;29.60;;;24.27;;
23370;SDS011;11858;51.056;3.712;2022-12-07T07:06:39;27.58;;;24.70;;
23370;SDS011;11858;51.056;3.712;2022-12-07T07:09:04;33.25;;;25.02;;
23370;SDS011;11858;51.056;3.712;2022-12-07T07:11:30;29.80;;;25.10;;
23370;SDS011;11858;51.056;3.712;2022-12-07T07:13:56;27.52;;;25.00;;
23370;SDS011;11858;51.056;3.712;2022-12-07T07:16:24;27.80;;;24.80;;
23370;SDS011;11858;51.056;3.712;2022-12-07T07:18:49;30.15;;;24.88;;
23370;SDS011;11858;51.056;3.712;2022-12-07T07:21:15;28.90;;;24.50;;
23370;SDS011;11858;51.056;3.712;2022-12-07T07:23:41;54.58;;;34.35;;
23370;SDS011;11858;51.056;3.712;2022-12-07T07:26:06;30.83;;;25.63;;
23370;SDS011;11858;51.056;3.712;2022-12-07T07:28:32;37.35;;;26.88;;
23370;SDS011;11858;51.056;3.712;2022-12-07T07:30:58;38.67;;;27.17;;
23370;SDS011;11858;51.056;3.712;2022-12-07T07:33:23;41.83;;;30.15;;
23370;SDS011;11858;51.056;3.712;2022-12-07T07:35:49;36.95;;;27.35;;
23370;SDS011;11858;51.056;3.712;2022-12-07T07:38:15;31.55;;;27.00;;
23370;SDS011;11858;51.056;3.712;2022-12-07T07:40:41;28.33;;;25.45;;
23370;SDS011;11858;51.056;3.712;2022-12-07T07:43:07;27.52;;;23.67;;
23370;SDS011;11858;51.056;3.712;2022-12-07T07:45:33;51.17;;;36.58;;
23370;SDS011;11858;51.056;3.712;2022-12-07T07:47:58;36.40;;;27.17;;
23370;SDS011;11858;51.056;3.712;2022-12-07T07:50:24;27.38;;;24.45;;
23370;SDS011;11858;51.056;3.712;2022-12-07T07:52:50;28.65;;;25.65;;
23370;SDS011;11858;51.056;3.712;2022-12-07T07:55:17;39.22;;;31.73;;
23370;SDS011;11858;51.056;3.712;2022-12-07T07:57:42;44.78;;;36.78;;
23370;SDS011;11858;51.056;3.712;2022-12-07T08:00:12;35.58;;;28.98;;
23370;SDS011;11858;51.056;3.712;2022-12-07T08:02:39;32.85;;;28.75;;
23370;SDS011;11858;51.056;3.712;2022-12-07T08:05:05;26.52;;;23.92;;
23370;SDS011;11858;51.056;3.712;2022-12-07T08:07:32;27.08;;;24.27;;
23370;SDS011;11858;51.056;3.712;2022-12-07T08:09:57;27.40;;;24.08;;
23370;SDS011;11858;51.056;3.712;2022-12-07T08:12:23;25.65;;;23.20;;
23370;SDS011;11858;51.056;3.712;2022-12-07T08:14:48;24.98;;;22.52;;
23370;SDS011;11858;51.056;3.712;2022-12-07T08:17:14;27.80;;;23.70;;
23370;SDS011;11858;51.056;3.712;2022-12-07T08:19:40;25.20;;;22.90;;
23370;SDS011;11858;51.056;3.712;2022-12-07T08:22:05;26.60;;;23.85;;
23370;SDS011;11858;51.056;3.712;2022-12-07T08:24:34;26.77;;;23.48;;
23370;SDS011;11858;51.056;3.712;2022-12-07T08:27:01;25.73;;;23.02;;
23370;SDS011;11858;51.056;3.712;2022-12-07T08:29:27;29.75;;;22.42;;
23370;SDS011;11858;51.056;3.712;2022-12-07T08:31:52;29.13;;;23.20;;
23370;SDS011;11858;51.056;3.712;2022-12-07T08:34:18;30.10;;;23.08;;
23370;SDS011;11858;51.056;3.712;2022-12-07T08:36:44;25.08;;;22.52;;
23370;SDS011;11858;51.056;3.712;2022-12-07T08:39:10;25.83;;;23.08;;
23370;SDS011;11858;51.056;3.712;2022-12-07T08:41:35;26.60;;;23.77;;
23370;SDS011;11858;51.056;3.712;2022-12-07T08:44:01;28.40;;;25.35;;
23370;SDS011;11858;51.056;3.712;2022-12-07T08:46:33;27.95;;;25.10;;
23370;SDS011;11858;51.056;3.712;2022-12-07T08:51:34;29.63;;;26.35;;
23370;SDS011;11858;51.056;3.712;2022-12-07T08:54:00;29.48;;;26.40;;
23370;SDS011;11858;51.056;3.712;2022-12-07T08:56:28;26.70;;;24.08;;
23370;SDS011;11858;51.056;3.712;2022-12-07T08:58:54;27.98;;;23.77;;
23370;SDS011;11858;51.056;3.712;2022-12-07T09:01:20;27.15;;;24.35;;
23370;SDS011;11858;51.056;3.712;2022-12-07T09:03:45;28.92;;;23.42;;
23370;SDS011;11858;51.056;3.712;2022-12-07T09:06:11;25.55;;;23.33;;
23370;SDS011;11858;51.056;3.712;2022-12-07T09:08:38;26.40;;;23.75;;
23370;SDS011;11858;51.056;3.712;2022-12-07T09:11:07;26.98;;;24.27;;
23370;SDS011;11858;51.056;3.712;2022-12-07T09:13:33;26.52;;;23.73;;
23370;SDS011;11858;51.056;3.712;2022-12-07T09:15:58;26.35;;;23.80;;
23370;SDS011;11858;51.056;3.712;2022-12-07T09:18:24;28.25;;;25.27;;
23370;SDS011;11858;51.056;3.712;2022-12-07T09:20:50;27.08;;;24.75;;
23370;SDS011;11858;51.056;3.712;2022-12-07T09:23:16;27.95;;;24.63;;
23370;SDS011;11858;51.056;3.712;2022-12-07T09:25:42;30.40;;;27.48;;
23370;SDS011;11858;51.056;3.712;2022-12-07T09:28:08;29.60;;;24.70;;
23370;SDS011;11858;51.056;3.712;2022-12-07T09:30:34;28.63;;;24.98;;
23370;SDS011;11858;51.056;3.712;2022-12-07T09:33:00;36.95;;;25.48;;
23370;SDS011;11858;51.056;3.712;2022-12-07T09:35:26;30.90;;;22.55;;
23370;SDS011;11858;51.056;3.712;2022-12-07T09:37:52;37.95;;;24.65;;
23370;SDS011;11858;51.056;3.712;2022-12-07T09:40:19;29.85;;;26.27;;
23370;SDS011;11858;51.056;3.712;2022-12-07T09:42:55;27.48;;;24.65;;
23370;SDS011;11858;51.056;3.712;2022-12-07T09:45:29;26.35;;;23.80;;
23370;SDS011;11858;51.056;3.712;2022-12-07T09:47:58;30.65;;;27.35;;
23370;SDS011;11858;51.056;3.712;2022-12-07T09:50:25;28.88;;;26.00;;
23370;SDS011;11858;51.056;3.712;2022-12-07T09:52:53;25.85;;;23.40;;
23370;SDS011;11858;51.056;3.712;2022-12-07T09:55:33;28.92;;;25.95;;
23370;SDS011;11858;51.056;3.712;2022-12-07T09:58:00;28.92;;;25.88;;
23370;SDS011;11858;51.056;3.712;2022-12-07T10:00:26;34.13;;;29.35;;
23370;SDS011;11858;51.056;3.712;2022-12-07T10:02:57;35.65;;;28.73;;
23370;SDS011;11858;51.056;3.712;2022-12-07T10:05:28;33.13;;;28.08;;
23370;SDS011;11858;51.056;3.712;2022-12-07T10:08:04;36.50;;;26.67;;
23370;SDS011;11858;51.056;3.712;2022-12-07T10:10:31;27.52;;;24.63;;
23370;SDS011;11858;51.056;3.712;2022-12-07T10:12:59;28.90;;;24.70;;
23370;SDS011;11858;51.056;3.712;2022-12-07T10:16:25;28.13;;;25.02;;
23370;SDS011;11858;51.056;3.712;2022-12-07T10:18:25;25.70;;;23.20;;
23370;SDS011;11858;51.056;3.712;2022-12-07T10:23:42;27.60;;;24.73;;
23370;SDS011;11858;51.056;3.712;2022-12-07T10:29:28;25.17;;;22.77;;
23370;SDS011;11858;51.056;3.712;2022-12-07T10:32:01;26.70;;;22.90;;
23370;SDS011;11858;51.056;3.712;2022-12-07T10:39:48;25.52;;;23.20;;
23370;SDS011;11858;51.056;3.712;2022-12-07T10:42:19;26.73;;;23.98;;
23370;SDS011;11858;51.056;3.712;2022-12-07T10:44:47;27.75;;;24.85;;
23370;SDS011;11858;51.056;3.712;2022-12-07T11:29:09;40.42;;;30.25;;
23370;SDS011;11858;51.056;3.712;2022-12-07T11:34:36;29.55;;;26.67;;
23370;SDS011;11858;51.056;3.712;2022-12-07T11:37:15;27.47;;;25.03;;
23370;SDS011;11858;51.056;3.712;2022-12-07T11:39:50;27.50;;;25.10;;
23370;SDS011;11858;51.056;3.712;2022-12-07T11:42:21;29.45;;;26.42;;
23370;SDS011;11858;51.056;3.712;2022-12-07T11:47:52;29.33;;;26.70;;
23370;SDS011;11858;51.056;3.712;2022-12-07T11:50:41;30.08;;;27.05;;
23370;SDS011;11858;51.056;3.712;2022-12-07T11:58:40;25.90;;;23.27;;
23370;SDS011;11858;51.056;3.712;2022-12-07T12:04:05;24.80;;;22.67;;
23370;SDS011;11858;51.056;3.712;2022-12-07T12:06:47;25.92;;;23.52;;
23370;SDS011;11858;51.056;3.712;2022-12-07T12:09:14;27.00;;;24.45;;
23370;SDS011;11858;51.056;3.712;2022-12-07T12:11:50;27.15;;;24.67;;
23370;SDS011;11858;51.056;3.712;2022-12-07T12:14:33;26.17;;;23.90;;
23370;SDS011;11858;51.056;3.712;2022-12-07T12:19:55;26.25;;;23.92;;
23370;SDS011;11858;51.056;3.712;2022-12-07T12:22:58;28.25;;;25.00;;
23370;SDS011;11858;51.056;3.712;2022-12-07T12:25:40;25.92;;;23.63;;
23370;SDS011;11858;51.056;3.712;2022-12-07T12:28:20;26.08;;;23.70;;
23370;SDS011;11858;51.056;3.712;2022-12-07T12:47:03;24.13;;;21.95;;
23370;SDS011;11858;51.056;3.712;2022-12-07T12:57:35;23.60;;;21.55;;
23370;SDS011;11858;51.056;3.712;2022-12-07T13:00:21;24.30;;;21.83;;
23370;SDS011;11858;51.056;3.712;2022-12-07T13:05:20;26.42;;;23.85;;
23370;SDS011;11858;51.056;3.712;2022-12-07T13:20:44;24.45;;;22.55;;
23370;SDS011;11858;51.056;3.712;2022-12-07T13:23:24;26.70;;;24.38;;
23370;SDS011;11858;51.056;3.712;2022-12-07T13:28:48;26.80;;;24.60;;
23370;SDS011;11858;51.056;3.712;2022-12-07T13:34:02;25.90;;;23.60;;
23370;SDS011;11858;51.056;3.712;2022-12-07T13:36:38;27.02;;;24.83;;
23370;SDS011;11858;51.056;3.712;2022-12-07T13:41:41;27.25;;;24.60;;
23370;SDS011;11858;51.056;3.712;2022-12-07T13:44:17;27.80;;;25.08;;
23370;SDS011;11858;51.056;3.712;2022-12-07T13:46:52;25.90;;;23.90;;
23370;SDS011;11858;51.056;3.712;2022-12-07T13:49:47;27.55;;;24.63;;
23370;SDS011;11858;51.056;3.712;2022-12-07T13:55:26;27.05;;;24.60;;
23370;SDS011;11858;51.056;3.712;2022-12-07T13:57:45;26.60;;;24.33;;
23370;SDS011;11858;51.056;3.712;2022-12-07T14:00:15;26.73;;;24.50;;
23370;SDS011;11858;51.056;3.712;2022-12-07T14:05:25;26.73;;;24.30;;
23370;SDS011;11858;51.056;3.712;2022-12-07T14:07:56;26.80;;;23.98;;
23370;SDS011;11858;51.056;3.712;2022-12-07T14:10:28;27.20;;;24.67;;
23370;SDS011;11858;51.056;3.712;2022-12-07T14:12:55;32.40;;;29.15;;
23370;SDS011;11858;51.056;3.712;2022-12-07T14:15:23;27.35;;;24.95;;
23370;SDS011;11858;51.056;3.712;2022-12-07T14:17:55;27.08;;;24.83;;
23370;SDS011;11858;51.056;3.712;2022-12-07T14:20:29;27.95;;;25.45;;
23370;SDS011;11858;51.056;3.712;2022-12-07T14:22:55;27.25;;;24.73;;
23370;SDS011;11858;51.056;3.712;2022-12-07T14:25:22;26.02;;;23.75;;
23370;SDS011;11858;51.056;3.712;2022-12-07T14:30:20;25.85;;;23.58;;
23370;SDS011;11858;51.056;3.712;2022-12-07T14:32:46;27.42;;;24.70;;
23370;SDS011;11858;51.056;3.712;2022-12-07T14:35:17;25.90;;;23.90;;
23370;SDS011;11858;51.056;3.712;2022-12-07T14:37:44;25.95;;;23.85;;
23370;SDS011;11858;51.056;3.712;2022-12-07T14:40:16;29.50;;;26.67;;
23370;SDS011;11858;51.056;3.712;2022-12-07T14:42:47;30.60;;;27.40;;
23370;SDS011;11858;51.056;3.712;2022-12-07T14:45:20;28.65;;;25.75;;
23370;SDS011;11858;51.056;3.712;2022-12-07T14:47:47;27.23;;;24.48;;
23370;SDS011;11858;51.056;3.712;2022-12-07T14:50:14;32.13;;;27.52;;
23370;SDS011;11858;51.056;3.712;2022-12-07T14:52:42;39.08;;;28.60;;
23370;SDS011;11858;51.056;3.712;2022-12-07T14:55:19;29.23;;;26.10;;
23370;SDS011;11858;51.056;3.712;2022-12-07T14:57:48;25.75;;;23.45;;
23370;SDS011;11858;51.056;3.712;2022-12-07T15:00:15;29.05;;;25.98;;
23370;SDS011;11858;51.056;3.712;2022-12-07T15:02:42;26.80;;;24.02;;
23370;SDS011;11858;51.056;3.712;2022-12-07T15:05:09;25.92;;;23.73;;
23370;SDS011;11858;51.056;3.712;2022-12-07T15:07:35;25.75;;;23.50;;
23370;SDS011;11858;51.056;3.712;2022-12-07T15:10:00;25.20;;;22.75;;
23370;SDS011;11858;51.056;3.712;2022-12-07T15:12:26;24.85;;;22.60;;
23370;SDS011;11858;51.056;3.712;2022-12-07T15:14:52;27.83;;;25.27;;
23370;SDS011;11858;51.056;3.712;2022-12-07T15:17:18;26.30;;;23.65;;
23370;SDS011;11858;51.056;3.712;2022-12-07T15:22:28;26.83;;;24.23;;
23370;SDS011;11858;51.056;3.712;2022-12-07T15:24:57;24.95;;;23.00;;
23370;SDS011;11858;51.056;3.712;2022-12-07T15:27:24;25.15;;;23.05;;
23370;SDS011;11858;51.056;3.712;2022-12-07T15:29:51;25.13;;;22.77;;
23370;SDS011;11858;51.056;3.712;2022-12-07T15:32:18;25.75;;;23.23;;
23370;SDS011;11858;51.056;3.712;2022-12-07T15:34:44;24.92;;;22.65;;
23370;SDS011;11858;51.056;3.712;2022-12-07T15:37:10;25.98;;;23.75;;
23370;SDS011;11858;51.056;3.712;2022-12-07T15:39:35;23.77;;;21.92;;
23370;SDS011;11858;51.056;3.712;2022-12-07T15:42:02;25.83;;;23.30;;
23370;SDS011;11858;51.056;3.712;2022-12-07T15:44:28;25.40;;;23.13;;
23370;SDS011;11858;51.056;3.712;2022-12-07T15:47:12;24.73;;;22.63;;
23370;SDS011;11858;51.056;3.712;2022-12-07T15:49:38;25.35;;;22.67;;
23370;SDS011;11858;51.056;3.712;2022-12-07T15:52:04;24.67;;;22.35;;
23370;SDS011;11858;51.056;3.712;2022-12-07T15:54:29;24.85;;;22.50;;
23370;SDS011;11858;51.056;3.712;2022-12-07T15:56:57;25.42;;;23.17;;
23370;SDS011;11858;51.056;3.712;2022-12-07T15:59:23;25.35;;;23.08;;
23370;SDS011;11858;51.056;3.712;2022-12-07T16:01:50;26.75;;;24.10;;
23370;SDS011;11858;51.056;3.712;2022-12-07T16:04:15;25.35;;;22.85;;
23370;SDS011;11858;51.056;3.712;2022-12-07T16:06:41;26.15;;;23.50;;
23370;SDS011;11858;51.056;3.712;2022-12-07T16:09:07;25.92;;;23.63;;
23370;SDS011;11858;51.056;3.712;2022-12-07T16:14:34;25.33;;;23.02;;
23370;SDS011;11858;51.056;3.712;2022-12-07T16:17:00;27.73;;;24.55;;
23370;SDS011;11858;51.056;3.712;2022-12-07T16:19:26;26.17;;;23.55;;
23370;SDS011;11858;51.056;3.712;2022-12-07T16:21:53;26.50;;;24.08;;
23370;SDS011;11858;51.056;3.712;2022-12-07T16:24:19;27.45;;;24.55;;
23370;SDS011;11858;51.056;3.712;2022-12-07T16:26:45;26.85;;;24.15;;
23370;SDS011;11858;51.056;3.712;2022-12-07T16:29:11;27.50;;;24.67;;
23370;SDS011;11858;51.056;3.712;2022-12-07T16:31:37;26.92;;;24.60;;
23370;SDS011;11858;51.056;3.712;2022-12-07T16:34:03;28.17;;;25.23;;
23370;SDS011;11858;51.056;3.712;2022-12-07T16:36:29;27.67;;;24.88;;
23370;SDS011;11858;51.056;3.712;2022-12-07T16:38:55;28.13;;;25.30;;
23370;SDS011;11858;51.056;3.712;2022-12-07T16:41:23;28.05;;;25.15;;
23370;SDS011;11858;51.056;3.712;2022-12-07T16:43:51;28.35;;;25.42;;
23370;SDS011;11858;51.056;3.712;2022-12-07T16:46:20;27.88;;;24.75;;
23370;SDS011;11858;51.056;3.712;2022-12-07T16:48:51;29.65;;;25.23;;
23370;SDS011;11858;51.056;3.712;2022-12-07T16:51:23;29.60;;;26.48;;
23370;SDS011;11858;51.056;3.712;2022-12-07T16:53:56;28.35;;;25.10;;
23370;SDS011;11858;51.056;3.712;2022-12-07T16:56:25;29.20;;;26.13;;
23370;SDS011;11858;51.056;3.712;2022-12-07T16:58:54;30.00;;;26.52;;
23370;SDS011;11858;51.056;3.712;2022-12-07T17:03:48;36.53;;;33.30;;
23370;SDS011;11858;51.056;3.712;2022-12-07T17:06:14;36.22;;;32.63;;
23370;SDS011;11858;51.056;3.712;2022-12-07T17:08:44;36.70;;;32.97;;
23370;SDS011;11858;51.056;3.712;2022-12-07T17:11:11;35.20;;;31.95;;
23370;SDS011;11858;51.056;3.712;2022-12-07T17:13:37;38.08;;;34.03;;
23370;SDS011;11858;51.056;3.712;2022-12-07T17:16:21;38.15;;;34.45;;
23370;SDS011;11858;51.056;3.712;2022-12-07T17:18:47;36.95;;;33.65;;
23370;SDS011;11858;51.056;3.712;2022-12-07T17:21:13;38.63;;;34.95;;
23370;SDS011;11858;51.056;3.712;2022-12-07T17:23:38;36.78;;;33.33;;